sensor_id;sensor_type;location;lat;lon;timestamp;pressure;altitude;pressure_sealevel;temperature;humidity
21401;BME280;18038;50.166;18.908;2024-03-08T00:00:25;98572.72;;;-2.06;96.41
21401;BME280;18038;50.166;18.908;2024-03-08T00:03:33;98576.28;;;-1.93;95.95
21401;BME280;18038;50.166;18.908;2024-03-08T00:06:40;98567.44;;;-1.91;95.44
21401;BME280;18038;50.166;18.908;2024-03-08T00:09:52;98550.44;;;-2.12;95.56
21401;BME280;18038;50.166;18.908;2024-03-08T00:13:00;98572.53;;;-1.89;95.36
21401;BME280;18038;50.166;18.908;2024-03-08T00:16:07;98571.44;;;-1.85;95.19
21401;BME280;18038;50.166;18.908;2024-03-08T00:19:17;98561.00;;;-1.85;94.88
21401;BME280;18038;50.166;18.908;2024-03-08T00:22:24;98561.75;;;-1.83;95.05
21401;BME280;18038;50.166;18.908;2024-03-08T00:25:34;98562.03;;;-1.88;94.98
21401;BME280;18038;50.166;18.908;2024-03-08T00:28:42;98552.41;;;-1.87;94.89
21401;BME280;18038;50.166;18.908;2024-03-08T00:31:51;98557.91;;;-1.92;94.97
21401;BME280;18038;50.166;18.908;2024-03-08T00:34:58;98549.69;;;-2.00;95.17
21401;BME280;18038;50.166;18.908;2024-03-08T00:38:06;98552.97;;;-1.96;95.39
21401;BME280;18038;50.166;18.908;2024-03-08T00:41:16;98553.63;;;-1.93;95.45
21401;BME280;18038;50.166;18.908;2024-03-08T00:44:24;98546.91;;;-1.97;95.53
21401;BME280;18038;50.166;18.908;2024-03-08T00:47:31;98546.06;;;-1.97;95.61
21401;BME280;18038;50.166;18.908;2024-03-08T00:50:39;98548.09;;;-2.02;95.47
21401;BME280;18038;50.166;18.908;2024-03-08T00:53:49;98540.34;;;-2.18;96.07
21401;BME280;18038;50.166;18.908;2024-03-08T00:57:00;98538.59;;;-2.18;96.49
21401;BME280;18038;50.166;18.908;2024-03-08T01:00:09;98535.81;;;-2.15;96.42
21401;BME280;18038;50.166;18.908;2024-03-08T01:03:19;98534.47;;;-2.22;96.59
21401;BME280;18038;50.166;18.908;2024-03-08T01:06:26;98529.44;;;-2.25;96.74
21401;BME280;18038;50.166;18.908;2024-03-08T01:09:35;98534.75;;;-2.26;96.94
21401;BME280;18038;50.166;18.908;2024-03-08T01:12:45;98525.34;;;-2.29;96.73
21401;BME280;18038;50.166;18.908;2024-03-08T01:15:53;98515.47;;;-2.24;96.74
21401;BME280;18038;50.166;18.908;2024-03-08T01:19:00;98512.22;;;-2.13;96.30
21401;BME280;18038;50.166;18.908;2024-03-08T01:22:08;98504.19;;;-2.10;95.79
21401;BME280;18038;50.166;18.908;2024-03-08T01:25:15;98502.31;;;-2.08;95.36
21401;BME280;18038;50.166;18.908;2024-03-08T01:28:26;98499.53;;;-2.19;95.79
21401;BME280;18038;50.166;18.908;2024-03-08T01:31:33;98496.44;;;-2.26;96.10
21401;BME280;18038;50.166;18.908;2024-03-08T01:34:41;98502.59;;;-2.27;96.33
21401;BME280;18038;50.166;18.908;2024-03-08T01:37:49;98506.72;;;-2.23;96.22
21401;BME280;18038;50.166;18.908;2024-03-08T01:40:57;98491.22;;;-2.26;96.10
21401;BME280;18038;50.166;18.908;2024-03-08T01:44:06;98491.72;;;-2.34;96.37
21401;BME280;18038;50.166;18.908;2024-03-08T01:47:14;98487.06;;;-2.28;96.35
21401;BME280;18038;50.166;18.908;2024-03-08T01:50:22;98483.31;;;-2.39;96.22
21401;BME280;18038;50.166;18.908;2024-03-08T01:53:30;98489.06;;;-2.48;96.75
21401;BME280;18038;50.166;18.908;2024-03-08T01:56:38;98480.13;;;-2.44;96.94
21401;BME280;18038;50.166;18.908;2024-03-08T01:59:50;98482.56;;;-2.41;96.75
21401;BME280;18038;50.166;18.908;2024-03-08T02:02:59;98477.41;;;-2.42;96.90
21401;BME280;18038;50.166;18.908;2024-03-08T02:06:09;98474.09;;;-2.44;96.58
21401;BME280;18038;50.166;18.908;2024-03-08T02:09:18;98478.34;;;-2.43;96.84
21401;BME280;18038;50.166;18.908;2024-03-08T02:12:27;98481.91;;;-2.30;96.54
21401;BME280;18038;50.166;18.908;2024-03-08T02:15:55;98473.34;;;-2.46;96.23
21401;BME280;18038;50.166;18.908;2024-03-08T02:19:04;98471.47;;;-2.44;96.35
21401;BME280;18038;50.166;18.908;2024-03-08T02:22:16;98482.75;;;-2.29;96.47
21401;BME280;18038;50.166;18.908;2024-03-08T02:25:24;98477.78;;;-2.34;95.89
21401;BME280;18038;50.166;18.908;2024-03-08T02:28:32;98472.47;;;-2.61;96.37
21401;BME280;18038;50.166;18.908;2024-03-08T02:31:41;98475.50;;;-2.69;97.32
21401;BME280;18038;50.166;18.908;2024-03-08T02:34:48;98472.25;;;-2.72;97.82
21401;BME280;18038;50.166;18.908;2024-03-08T02:37:59;98471.31;;;-2.71;97.74
21401;BME280;18038;50.166;18.908;2024-03-08T02:41:07;98465.75;;;-2.65;97.47
21401;BME280;18038;50.166;18.908;2024-03-08T02:44:16;98475.22;;;-2.79;97.58
21401;BME280;18038;50.166;18.908;2024-03-08T02:47:25;98472.91;;;-2.69;97.54
21401;BME280;18038;50.166;18.908;2024-03-08T02:50:36;98470.94;;;-2.80;97.75
21401;BME280;18038;50.166;18.908;2024-03-08T02:53:46;98467.22;;;-2.76;97.92
21401;BME280;18038;50.166;18.908;2024-03-08T02:56:56;98468.81;;;-2.73;97.59
21401;BME280;18038;50.166;18.908;2024-03-08T03:00:05;98459.69;;;-2.66;97.24
21401;BME280;18038;50.166;18.908;2024-03-08T03:03:14;98466.78;;;-2.54;97.02
21401;BME280;18038;50.166;18.908;2024-03-08T03:06:21;98459.22;;;-2.58;96.98
21401;BME280;18038;50.166;18.908;2024-03-08T03:09:33;98466.41;;;-2.62;96.90
21401;BME280;18038;50.166;18.908;2024-03-08T03:12:40;98458.97;;;-2.68;97.14
21401;BME280;18038;50.166;18.908;2024-03-08T03:15:48;98474.63;;;-2.54;96.88
21401;BME280;18038;50.166;18.908;2024-03-08T03:18:55;98461.69;;;-2.41;95.87
21401;BME280;18038;50.166;18.908;2024-03-08T03:22:06;98466.34;;;-2.46;95.52
21401;BME280;18038;50.166;18.908;2024-03-08T03:25:17;98461.13;;;-2.46;95.36
21401;BME280;18038;50.166;18.908;2024-03-08T03:28:29;98466.97;;;-2.42;95.31
21401;BME280;18038;50.166;18.908;2024-03-08T03:31:37;98467.47;;;-2.36;94.75
21401;BME280;18038;50.166;18.908;2024-03-08T03:34:45;98461.13;;;-2.32;94.24
21401;BME280;18038;50.166;18.908;2024-03-08T03:37:52;98456.09;;;-2.35;94.36
21401;BME280;18038;50.166;18.908;2024-03-08T03:41:16;98464.41;;;-2.28;93.99
21401;BME280;18038;50.166;18.908;2024-03-08T03:44:23;98464.09;;;-2.38;93.77
21401;BME280;18038;50.166;18.908;2024-03-08T03:47:31;98463.53;;;-2.43;94.18
21401;BME280;18038;50.166;18.908;2024-03-08T03:50:38;98457.13;;;-2.37;94.02
21401;BME280;18038;50.166;18.908;2024-03-08T03:53:46;98460.09;;;-2.29;94.01
21401;BME280;18038;50.166;18.908;2024-03-08T03:56:56;98455.34;;;-2.22;93.57
21401;BME280;18038;50.166;18.908;2024-03-08T04:00:06;98455.09;;;-2.18;93.12
21401;BME280;18038;50.166;18.908;2024-03-08T04:03:16;98454.34;;;-2.20;93.08
21401;BME280;18038;50.166;18.908;2024-03-08T04:06:24;98449.38;;;-2.24;92.89
21401;BME280;18038;50.166;18.908;2024-03-08T04:09:32;98451.44;;;-2.29;92.98
21401;BME280;18038;50.166;18.908;2024-03-08T04:12:45;98453.97;;;-2.28;93.17
21401;BME280;18038;50.166;18.908;2024-03-08T04:15:52;98455.91;;;-2.17;92.87
21401;BME280;18038;50.166;18.908;2024-03-08T04:19:00;98456.13;;;-2.20;92.68
21401;BME280;18038;50.166;18.908;2024-03-08T04:22:08;98455.91;;;-2.32;93.17
21401;BME280;18038;50.166;18.908;2024-03-08T04:25:17;98455.91;;;-2.32;93.34
21401;BME280;18038;50.166;18.908;2024-03-08T04:28:27;98445.28;;;-2.43;93.38
21401;BME280;18038;50.166;18.908;2024-03-08T04:31:35;98455.19;;;-2.34;93.62
21401;BME280;18038;50.166;18.908;2024-03-08T04:34:43;98451.81;;;-2.36;93.42
21401;BME280;18038;50.166;18.908;2024-03-08T04:37:51;98461.34;;;-2.20;93.23
21401;BME280;18038;50.166;18.908;2024-03-08T04:40:59;98454.22;;;-2.04;92.80
21401;BME280;18038;50.166;18.908;2024-03-08T04:44:11;98454.78;;;-1.99;92.08
21401;BME280;18038;50.166;18.908;2024-03-08T04:47:19;98448.19;;;-2.04;92.04
21401;BME280;18038;50.166;18.908;2024-03-08T04:50:27;98452.66;;;-2.06;92.09
21401;BME280;18038;50.166;18.908;2024-03-08T04:53:34;98468.56;;;-1.97;92.46
21401;BME280;18038;50.166;18.908;2024-03-08T04:56:43;98453.84;;;-1.83;91.88
21401;BME280;18038;50.166;18.908;2024-03-08T04:59:53;98454.75;;;-1.84;91.65
21401;BME280;18038;50.166;18.908;2024-03-08T05:03:04;98457.78;;;-1.91;91.83
21401;BME280;18038;50.166;18.908;2024-03-08T05:06:11;98462.03;;;-1.75;91.90
21401;BME280;18038;50.166;18.908;2024-03-08T05:09:19;98448.50;;;-1.68;91.42
21401;BME280;18038;50.166;18.908;2024-03-08T05:12:27;98460.81;;;-1.70;91.36
21401;BME280;18038;50.166;18.908;2024-03-08T05:15:38;98459.78;;;-1.67;91.56
21401;BME280;18038;50.166;18.908;2024-03-08T05:18:45;98462.56;;;-1.56;90.78
21401;BME280;18038;50.166;18.908;2024-03-08T05:21:54;98468.53;;;-1.54;90.63
21401;BME280;18038;50.166;18.908;2024-03-08T05:25:01;98465.31;;;-1.45;90.82
21401;BME280;18038;50.166;18.908;2024-03-08T05:28:09;98464.41;;;-1.58;90.72
21401;BME280;18038;50.166;18.908;2024-03-08T05:31:22;98462.56;;;-1.56;90.80
21401;BME280;18038;50.166;18.908;2024-03-08T05:34:30;98463.72;;;-1.47;90.64
21401;BME280;18038;50.166;18.908;2024-03-08T05:37:37;98472.06;;;-1.55;90.90
21401;BME280;18038;50.166;18.908;2024-03-08T05:40:46;98473.16;;;-1.45;91.18
21401;BME280;18038;50.166;18.908;2024-03-08T05:43:55;98474.31;;;-1.49;90.83
21401;BME280;18038;50.166;18.908;2024-03-08T05:47:06;98482.50;;;-1.40;90.83
21401;BME280;18038;50.166;18.908;2024-03-08T05:50:13;98481.34;;;-1.36;90.52
21401;BME280;18038;50.166;18.908;2024-03-08T05:53:21;98475.91;;;-1.33;90.29
21401;BME280;18038;50.166;18.908;2024-03-08T05:56:29;98482.06;;;-1.20;89.79
21401;BME280;18038;50.166;18.908;2024-03-08T05:59:37;98484.22;;;-1.27;89.87
21401;BME280;18038;50.166;18.908;2024-03-08T06:02:47;98470.31;;;-1.27;89.37
21401;BME280;18038;50.166;18.908;2024-03-08T06:05:56;98470.38;;;-1.14;88.98
21401;BME280;18038;50.166;18.908;2024-03-08T06:09:03;98472.81;;;-0.99;88.81
21401;BME280;18038;50.166;18.908;2024-03-08T06:12:17;98472.53;;;-0.81;88.14
21401;BME280;18038;50.166;18.908;2024-03-08T06:15:24;98473.81;;;-0.74;87.08
21401;BME280;18038;50.166;18.908;2024-03-08T06:18:34;98477.69;;;-0.80;87.26
21401;BME280;18038;50.166;18.908;2024-03-08T06:21:43;98480.31;;;-0.67;86.56
21401;BME280;18038;50.166;18.908;2024-03-08T06:24:51;98480.41;;;-0.68;86.30
21401;BME280;18038;50.166;18.908;2024-03-08T06:27:59;98476.00;;;-0.68;86.73
21401;BME280;18038;50.166;18.908;2024-03-08T06:31:06;98480.41;;;-0.68;86.29
21401;BME280;18038;50.166;18.908;2024-03-08T06:34:17;98476.53;;;-0.63;86.64
21401;BME280;18038;50.166;18.908;2024-03-08T06:37:25;98480.91;;;-0.76;86.15
21401;BME280;18038;50.166;18.908;2024-03-08T06:40:32;98482.59;;;-0.75;86.52
21401;BME280;18038;50.166;18.908;2024-03-08T06:43:40;98479.25;;;-0.77;86.09
21401;BME280;18038;50.166;18.908;2024-03-08T06:46:48;98474.38;;;-0.56;86.49
21401;BME280;18038;50.166;18.908;2024-03-08T06:50:00;98473.13;;;-0.50;85.97
21401;BME280;18038;50.166;18.908;2024-03-08T06:53:07;98475.00;;;-0.52;85.89
21401;BME280;18038;50.166;18.908;2024-03-08T06:56:15;98479.59;;;-0.56;84.95
21401;BME280;18038;50.166;18.908;2024-03-08T06:59:23;98481.06;;;-0.52;85.28
21401;BME280;18038;50.166;18.908;2024-03-08T07:02:31;98477.31;;;-0.48;85.02
21401;BME280;18038;50.166;18.908;2024-03-08T07:05:42;98468.19;;;-0.42;84.57
21401;BME280;18038;50.166;18.908;2024-03-08T07:08:50;98478.13;;;-0.60;84.80
21401;BME280;18038;50.166;18.908;2024-03-08T07:11:58;98470.06;;;-0.57;85.22
21401;BME280;18038;50.166;18.908;2024-03-08T07:15:07;98473.84;;;-0.61;85.03
21401;BME280;18038;50.166;18.908;2024-03-08T07:18:17;98476.31;;;-0.72;85.05
21401;BME280;18038;50.166;18.908;2024-03-08T07:21:29;98474.25;;;-0.55;85.51
21401;BME280;18038;50.166;18.908;2024-03-08T07:24:37;98479.63;;;-0.43;85.01
21401;BME280;18038;50.166;18.908;2024-03-08T07:28:00;98481.28;;;-0.42;84.78
21401;BME280;18038;50.166;18.908;2024-03-08T07:31:08;98475.41;;;-0.33;84.43
21401;BME280;18038;50.166;18.908;2024-03-08T07:34:26;98481.09;;;-0.14;84.51
21401;BME280;18038;50.166;18.908;2024-03-08T07:37:38;98478.53;;;-0.41;84.14
21401;BME280;18038;50.166;18.908;2024-03-08T07:40:46;98473.97;;;-0.37;84.57
21401;BME280;18038;50.166;18.908;2024-03-08T07:43:53;98473.00;;;-0.36;84.32
21401;BME280;18038;50.166;18.908;2024-03-08T07:47:01;98476.69;;;-0.26;83.95
21401;BME280;18038;50.166;18.908;2024-03-08T07:50:09;98468.94;;;-0.40;84.47
21401;BME280;18038;50.166;18.908;2024-03-08T07:53:23;98471.88;;;-0.32;84.72
21401;BME280;18038;50.166;18.908;2024-03-08T07:56:31;98476.47;;;-0.10;83.89
21401;BME280;18038;50.166;18.908;2024-03-08T07:59:41;98481.78;;;0.01;83.63
21401;BME280;18038;50.166;18.908;2024-03-08T08:02:48;98480.94;;;0.26;82.25
21401;BME280;18038;50.166;18.908;2024-03-08T08:05:57;98481.44;;;0.31;81.28
21401;BME280;18038;50.166;18.908;2024-03-08T08:09:08;98483.88;;;0.59;80.67
21401;BME280;18038;50.166;18.908;2024-03-08T08:12:19;98478.31;;;0.26;81.27
21401;BME280;18038;50.166;18.908;2024-03-08T08:15:26;98479.69;;;0.56;81.30
21401;BME280;18038;50.166;18.908;2024-03-08T08:18:35;98485.09;;;0.78;80.47
21401;BME280;18038;50.166;18.908;2024-03-08T08:21:43;98484.03;;;1.05;79.87
21401;BME280;18038;50.166;18.908;2024-03-08T08:24:54;98484.19;;;0.91;80.34
21401;BME280;18038;50.166;18.908;2024-03-08T08:28:01;98491.00;;;0.56;80.88
21401;BME280;18038;50.166;18.908;2024-03-08T08:31:09;98484.59;;;0.24;81.96
21401;BME280;18038;50.166;18.908;2024-03-08T08:34:17;98477.72;;;-0.28;83.70
21401;BME280;18038;50.166;18.908;2024-03-08T08:37:28;98485.97;;;0.04;83.99
21401;BME280;18038;50.166;18.908;2024-03-08T08:40:38;98492.25;;;-0.12;84.22
21401;BME280;18038;50.166;18.908;2024-03-08T08:43:46;98495.09;;;-0.15;83.79
21401;BME280;18038;50.166;18.908;2024-03-08T08:47:10;98490.19;;;-0.32;83.91
21401;BME280;18038;50.166;18.908;2024-03-08T08:50:20;98497.00;;;-0.29;84.64
21401;BME280;18038;50.166;18.908;2024-03-08T08:53:28;98493.84;;;-0.09;84.50
21401;BME280;18038;50.166;18.908;2024-03-08T08:56:38;98488.31;;;-0.30;84.74
21401;BME280;18038;50.166;18.908;2024-03-08T08:59:46;98482.75;;;-0.13;84.73
21401;BME280;18038;50.166;18.908;2024-03-08T09:02:54;98493.22;;;0.00;84.13
21401;BME280;18038;50.166;18.908;2024-03-08T09:06:02;98486.50;;;-0.04;83.76
21401;BME280;18038;50.166;18.908;2024-03-08T09:09:14;98484.41;;;0.14;83.40
21401;BME280;18038;50.166;18.908;2024-03-08T09:12:25;98477.50;;;-0.25;83.72
21401;BME280;18038;50.166;18.908;2024-03-08T09:15:33;98480.00;;;0.15;83.51
21401;BME280;18038;50.166;18.908;2024-03-08T09:18:41;98475.41;;;0.05;82.86
21401;BME280;18038;50.166;18.908;2024-03-08T09:21:49;98470.41;;;-0.11;83.24
21401;BME280;18038;50.166;18.908;2024-03-08T09:24:57;98472.06;;;-0.10;83.55
21401;BME280;18038;50.166;18.908;2024-03-08T09:28:08;98474.22;;;0.09;83.26
21401;BME280;18038;50.166;18.908;2024-03-08T09:31:16;98476.47;;;0.03;83.16
21401;BME280;18038;50.166;18.908;2024-03-08T09:34:25;98473.09;;;0.01;82.36
21401;BME280;18038;50.166;18.908;2024-03-08T09:37:41;98462.63;;;-0.12;83.01
21401;BME280;18038;50.166;18.908;2024-03-08T09:40:49;98469.97;;;-0.04;82.78
21401;BME280;18038;50.166;18.908;2024-03-08T09:43:59;98473.31;;;0.10;82.34
21401;BME280;18038;50.166;18.908;2024-03-08T09:47:10;98477.25;;;0.29;81.86
21401;BME280;18038;50.166;18.908;2024-03-08T09:50:20;98467.88;;;0.74;80.88
21401;BME280;18038;50.166;18.908;2024-03-08T09:53:31;98474.91;;;0.98;79.33
21401;BME280;18038;50.166;18.908;2024-03-08T09:56:39;98474.06;;;1.21;78.92
21401;BME280;18038;50.166;18.908;2024-03-08T09:59:51;98464.09;;;1.49;77.41
21401;BME280;18038;50.166;18.908;2024-03-08T10:03:00;98466.50;;;1.52;77.08
21401;BME280;18038;50.166;18.908;2024-03-08T10:06:10;98458.53;;;1.65;76.04
21401;BME280;18038;50.166;18.908;2024-03-08T10:09:17;98466.31;;;1.78;75.55
21401;BME280;18038;50.166;18.908;2024-03-08T10:12:26;98464.88;;;2.07;75.39
21401;BME280;18038;50.166;18.908;2024-03-08T10:15:36;98467.53;;;1.96;74.68
21401;BME280;18038;50.166;18.908;2024-03-08T10:18:45;98468.94;;;2.45;73.99
21401;BME280;18038;50.166;18.908;2024-03-08T10:21:53;98470.47;;;2.59;72.57
21401;BME280;18038;50.166;18.908;2024-03-08T10:25:04;98461.09;;;2.77;71.99
21401;BME280;18038;50.166;18.908;2024-03-08T10:28:14;98464.94;;;3.06;71.87
21401;BME280;18038;50.166;18.908;2024-03-08T10:31:25;98460.34;;;2.87;71.38
21401;BME280;18038;50.166;18.908;2024-03-08T10:34:32;98463.31;;;2.93;71.02
21401;BME280;18038;50.166;18.908;2024-03-08T10:37:45;98458.69;;;3.60;69.92
21401;BME280;18038;50.166;18.908;2024-03-08T10:40:54;98462.03;;;3.83;68.13
21401;BME280;18038;50.166;18.908;2024-03-08T10:44:10;98459.41;;;3.41;69.60
21401;BME280;18038;50.166;18.908;2024-03-08T10:47:35;98453.09;;;4.05;68.69
21401;BME280;18038;50.166;18.908;2024-03-08T10:50:49;98454.75;;;4.37;67.49
21401;BME280;18038;50.166;18.908;2024-03-08T10:53:57;98441.19;;;4.51;65.98
21401;BME280;18038;50.166;18.908;2024-03-08T10:57:10;98455.56;;;3.97;67.30
21401;BME280;18038;50.166;18.908;2024-03-08T11:00:20;98446.50;;;3.90;67.77
21401;BME280;18038;50.166;18.908;2024-03-08T11:03:47;98449.78;;;3.72;67.81
21401;BME280;18038;50.166;18.908;2024-03-08T11:07:01;98444.25;;;3.85;68.97
21401;BME280;18038;50.166;18.908;2024-03-08T11:10:19;98444.38;;;4.14;68.56
21401;BME280;18038;50.166;18.908;2024-03-08T11:13:33;98447.88;;;4.55;66.63
21401;BME280;18038;50.166;18.908;2024-03-08T11:16:44;98442.19;;;4.60;65.16
21401;BME280;18038;50.166;18.908;2024-03-08T11:19:56;98446.06;;;3.84;67.24
21401;BME280;18038;50.166;18.908;2024-03-08T11:23:06;98438.34;;;3.62;68.99
21401;BME280;18038;50.166;18.908;2024-03-08T11:26:18;98436.16;;;3.67;68.75
21401;BME280;18038;50.166;18.908;2024-03-08T11:29:34;98430.09;;;4.17;66.65
21401;BME280;18038;50.166;18.908;2024-03-08T11:32:45;98425.34;;;4.41;65.36
21401;BME280;18038;50.166;18.908;2024-03-08T11:36:02;98435.34;;;4.47;66.61
21401;BME280;18038;50.166;18.908;2024-03-08T11:39:16;98426.94;;;4.73;65.45
21401;BME280;18038;50.166;18.908;2024-03-08T11:42:25;98417.59;;;4.59;65.65
21401;BME280;18038;50.166;18.908;2024-03-08T11:45:33;98422.13;;;4.78;65.31
21401;BME280;18038;50.166;18.908;2024-03-08T11:48:48;98409.81;;;4.58;66.60
21401;BME280;18038;50.166;18.908;2024-03-08T11:51:58;98406.41;;;4.86;65.68
21401;BME280;18038;50.166;18.908;2024-03-08T11:55:08;98403.72;;;4.57;64.74
21401;BME280;18038;50.166;18.908;2024-03-08T11:58:17;98407.88;;;4.69;65.86
21401;BME280;18038;50.166;18.908;2024-03-08T12:01:25;98404.53;;;4.67;64.93
21401;BME280;18038;50.166;18.908;2024-03-08T12:04:33;98404.81;;;4.55;65.67
21401;BME280;18038;50.166;18.908;2024-03-08T12:07:43;98395.16;;;4.94;64.96
21401;BME280;18038;50.166;18.908;2024-03-08T12:10:51;98394.19;;;4.76;64.72
21401;BME280;18038;50.166;18.908;2024-03-08T12:14:04;98385.75;;;4.31;65.55
21401;BME280;18038;50.166;18.908;2024-03-08T12:17:12;98395.31;;;4.32;66.21
21401;BME280;18038;50.166;18.908;2024-03-08T12:20:22;98390.41;;;4.68;66.61
21401;BME280;18038;50.166;18.908;2024-03-08T12:23:33;98387.38;;;4.83;64.48
21401;BME280;18038;50.166;18.908;2024-03-08T12:26:41;98378.78;;;4.81;65.43
21401;BME280;18038;50.166;18.908;2024-03-08T12:29:48;98374.59;;;4.88;64.81
21401;BME280;18038;50.166;18.908;2024-03-08T12:33:00;98371.88;;;4.39;65.85
21401;BME280;18038;50.166;18.908;2024-03-08T12:36:14;98366.38;;;4.52;66.56
21401;BME280;18038;50.166;18.908;2024-03-08T12:39:27;98366.50;;;4.70;66.38
21401;BME280;18038;50.166;18.908;2024-03-08T12:42:34;98364.44;;;4.83;65.69
21401;BME280;18038;50.166;18.908;2024-03-08T12:45:43;98354.44;;;4.77;66.38
21401;BME280;18038;50.166;18.908;2024-03-08T12:48:50;98354.75;;;4.84;65.98
21401;BME280;18038;50.166;18.908;2024-03-08T12:51:58;98355.25;;;4.68;66.22
21401;BME280;18038;50.166;18.908;2024-03-08T12:55:08;98342.63;;;4.52;65.76
21401;BME280;18038;50.166;18.908;2024-03-08T12:58:17;98348.03;;;4.60;66.71
21401;BME280;18038;50.166;18.908;2024-03-08T13:01:25;98323.84;;;4.45;66.59
21401;BME280;18038;50.166;18.908;2024-03-08T13:04:34;98337.91;;;4.65;66.54
21401;BME280;18038;50.166;18.908;2024-03-08T13:07:41;98340.00;;;4.81;66.52
21401;BME280;18038;50.166;18.908;2024-03-08T13:10:54;98331.94;;;4.92;66.24
21401;BME280;18038;50.166;18.908;2024-03-08T13:14:02;98327.66;;;4.82;66.21
21401;BME280;18038;50.166;18.908;2024-03-08T13:17:11;98322.50;;;5.00;66.05
21401;BME280;18038;50.166;18.908;2024-03-08T13:20:19;98326.38;;;4.95;66.63
21401;BME280;18038;50.166;18.908;2024-03-08T13:23:37;98322.63;;;4.69;66.57
21401;BME280;18038;50.166;18.908;2024-03-08T13:26:51;98320.53;;;4.72;67.44
21401;BME280;18038;50.166;18.908;2024-03-08T13:29:59;98302.91;;;4.73;66.44
21401;BME280;18038;50.166;18.908;2024-03-08T13:33:07;98310.41;;;4.39;68.42
21401;BME280;18038;50.166;18.908;2024-03-08T13:36:16;98305.41;;;4.55;68.19
21401;BME280;18038;50.166;18.908;2024-03-08T13:39:24;98304.56;;;4.55;67.90
21401;BME280;18038;50.166;18.908;2024-03-08T13:42:36;98302.75;;;4.55;68.01
21401;BME280;18038;50.166;18.908;2024-03-08T13:45:46;98294.44;;;4.60;67.88
21401;BME280;18038;50.166;18.908;2024-03-08T13:48:54;98293.72;;;4.48;68.54
21401;BME280;18038;50.166;18.908;2024-03-08T13:52:05;98297.34;;;4.37;69.17
21401;BME280;18038;50.166;18.908;2024-03-08T13:55:14;98296.09;;;4.41;69.37
21401;BME280;18038;50.166;18.908;2024-03-08T13:58:25;98294.44;;;4.30;69.10
21401;BME280;18038;50.166;18.908;2024-03-08T14:01:33;98291.53;;;4.34;68.65
21401;BME280;18038;50.166;18.908;2024-03-08T14:04:41;98290.09;;;4.20;69.39
21401;BME280;18038;50.166;18.908;2024-03-08T14:07:49;98286.75;;;4.08;69.89
21401;BME280;18038;50.166;18.908;2024-03-08T14:10:58;98285.25;;;4.15;70.04
21401;BME280;18038;50.166;18.908;2024-03-08T14:14:18;98282.56;;;3.96;69.91
21401;BME280;18038;50.166;18.908;2024-03-08T14:17:26;98286.78;;;4.27;69.88
21401;BME280;18038;50.166;18.908;2024-03-08T14:20:35;98287.47;;;4.20;70.33
21401;BME280;18038;50.166;18.908;2024-03-08T14:23:43;98281.22;;;4.40;69.39
21401;BME280;18038;50.166;18.908;2024-03-08T14:26:53;98270.66;;;4.11;69.26
21401;BME280;18038;50.166;18.908;2024-03-08T14:30:07;98275.91;;;3.92;70.05
21401;BME280;18038;50.166;18.908;2024-03-08T14:33:16;98279.53;;;4.00;69.69
21401;BME280;18038;50.166;18.908;2024-03-08T14:36:23;98277.72;;;4.01;70.65
21401;BME280;18038;50.166;18.908;2024-03-08T14:39:31;98269.56;;;4.14;70.08
21401;BME280;18038;50.166;18.908;2024-03-08T14:42:41;98270.53;;;4.13;70.13
21401;BME280;18038;50.166;18.908;2024-03-08T14:45:52;98260.41;;;4.08;70.62
21401;BME280;18038;50.166;18.908;2024-03-08T14:48:59;98268.72;;;4.13;70.02
21401;BME280;18038;50.166;18.908;2024-03-08T14:52:08;98265.13;;;4.14;69.93
21401;BME280;18038;50.166;18.908;2024-03-08T14:55:31;98267.38;;;4.28;69.85
21401;BME280;18038;50.166;18.908;2024-03-08T14:58:40;98267.66;;;4.25;70.26
21401;BME280;18038;50.166;18.908;2024-03-08T15:01:50;98258.88;;;4.15;70.38
21401;BME280;18038;50.166;18.908;2024-03-08T15:04:58;98265.53;;;4.19;70.13
21401;BME280;18038;50.166;18.908;2024-03-08T15:08:12;98255.13;;;4.08;70.18
21401;BME280;18038;50.166;18.908;2024-03-08T15:11:25;98258.06;;;4.15;70.30
21401;BME280;18038;50.166;18.908;2024-03-08T15:14:33;98256.09;;;4.17;70.04
21401;BME280;18038;50.166;18.908;2024-03-08T15:17:44;98254.72;;;4.13;70.56
21401;BME280;18038;50.166;18.908;2024-03-08T15:20:52;98249.16;;;3.96;70.85
21401;BME280;18038;50.166;18.908;2024-03-08T15:24:00;98249.00;;;3.98;70.91
21401;BME280;18038;50.166;18.908;2024-03-08T15:27:07;98248.47;;;4.04;70.66
21401;BME280;18038;50.166;18.908;2024-03-08T15:30:16;98251.25;;;4.02;70.52
21401;BME280;18038;50.166;18.908;2024-03-08T15:33:29;98237.22;;;4.02;71.28
21401;BME280;18038;50.166;18.908;2024-03-08T15:36:37;98247.72;;;3.82;71.24
21401;BME280;18038;50.166;18.908;2024-03-08T15:39:46;98241.06;;;3.78;71.34
21401;BME280;18038;50.166;18.908;2024-03-08T15:42:55;98227.16;;;3.57;72.38
21401;BME280;18038;50.166;18.908;2024-03-08T15:46:03;98235.66;;;3.70;72.05
21401;BME280;18038;50.166;18.908;2024-03-08T15:49:14;98242.19;;;3.76;72.09
21401;BME280;18038;50.166;18.908;2024-03-08T15:52:22;98236.22;;;3.74;72.55
21401;BME280;18038;50.166;18.908;2024-03-08T15:55:32;98228.53;;;3.51;72.48
21401;BME280;18038;50.166;18.908;2024-03-08T15:58:39;98230.16;;;3.42;73.21
21401;BME280;18038;50.166;18.908;2024-03-08T16:01:48;98231.03;;;3.53;73.42
21401;BME280;18038;50.166;18.908;2024-03-08T16:04:58;98232.53;;;3.46;73.68
21401;BME280;18038;50.166;18.908;2024-03-08T16:08:09;98228.66;;;3.50;73.66
21401;BME280;18038;50.166;18.908;2024-03-08T16:11:19;98225.38;;;3.57;73.39
21401;BME280;18038;50.166;18.908;2024-03-08T16:14:28;98228.34;;;3.43;74.18
21401;BME280;18038;50.166;18.908;2024-03-08T16:17:35;98229.72;;;3.37;74.44
21401;BME280;18038;50.166;18.908;2024-03-08T16:20:49;98236.34;;;3.32;74.42
21401;BME280;18038;50.166;18.908;2024-03-08T16:23:58;98227.84;;;3.09;75.07
21401;BME280;18038;50.166;18.908;2024-03-08T16:27:06;98219.13;;;2.87;75.88
21401;BME280;18038;50.166;18.908;2024-03-08T16:30:13;98219.66;;;2.60;76.91
21401;BME280;18038;50.166;18.908;2024-03-08T16:33:24;98221.75;;;2.66;77.29
21401;BME280;18038;50.166;18.908;2024-03-08T16:36:34;98217.53;;;2.75;77.04